createdAt,value
2018-09-28T00:00:01.237Z,101185.00
2018-09-28T00:02:30.176Z,101191.00
2018-09-28T00:04:59.100Z,101192.00
2018-09-28T00:07:27.967Z,101192.00
2018-09-28T00:09:56.877Z,101195.00
2018-09-28T00:12:25.788Z,101193.00
2018-09-28T00:14:54.682Z,101191.00
2018-09-28T00:17:23.556Z,101186.00
2018-09-28T00:19:52.489Z,101191.00
2018-09-28T00:22:21.383Z,101185.00
2018-09-28T00:24:50.284Z,101182.00
2018-09-28T00:27:19.227Z,101182.00
2018-09-28T00:29:48.146Z,101181.00
2018-09-28T00:32:17.052Z,101180.00
2018-09-28T00:34:45.874Z,101174.00
2018-09-28T00:37:14.808Z,101173.00
2018-09-28T00:39:43.699Z,101175.00
2018-09-28T00:42:12.662Z,101175.00
2018-09-28T00:44:41.498Z,101179.00
2018-09-28T00:47:10.372Z,101176.00
2018-09-28T00:49:39.263Z,101167.00
2018-09-28T00:52:08.087Z,101171.00
2018-09-28T00:54:36.948Z,101161.00
2018-09-28T00:57:05.897Z,101171.00
2018-09-28T00:59:34.760Z,101164.00
2018-09-28T01:02:03.660Z,101170.00
2018-09-28T01:04:32.540Z,101155.00
2018-09-28T01:07:01.417Z,101156.00
2018-09-28T01:09:30.263Z,101160.00
2018-09-28T01:11:59.130Z,101153.00
2018-09-28T01:14:27.994Z,101160.00
2018-09-28T01:16:56.872Z,101147.00
2018-09-28T01:19:25.781Z,101153.00
2018-09-28T01:21:54.685Z,101145.00
2018-09-28T01:24:24.479Z,101142.00
2018-09-28T01:26:53.352Z,101140.00
2018-09-28T01:29:22.256Z,101144.00
2018-09-28T01:31:51.132Z,101140.00
2018-09-28T01:34:20.035Z,101144.00
2018-09-28T01:36:48.937Z,101150.00
2018-09-28T01:39:17.832Z,101142.00
2018-09-28T01:41:46.658Z,101141.00
2018-09-28T01:44:15.581Z,101143.00
2018-09-28T01:46:44.672Z,101143.00
2018-09-28T01:49:13.565Z,101134.00
2018-09-28T01:51:42.409Z,101137.00
2018-09-28T01:54:11.276Z,101129.00
2018-09-28T01:56:40.160Z,101127.00
2018-09-28T01:59:09.029Z,101129.00
2018-09-28T02:01:37.883Z,101129.00
2018-09-28T02:04:06.783Z,101132.00
2018-09-28T02:06:35.681Z,101138.00
2018-09-28T02:09:05.688Z,101144.00
2018-09-28T02:11:34.599Z,101135.00
2018-09-28T02:14:03.511Z,101135.00
2018-09-28T02:16:32.381Z,101142.00
2018-09-28T02:19:01.317Z,101141.00
2018-09-28T02:21:30.239Z,101141.00
2018-09-28T02:23:59.137Z,101144.00
2018-09-28T02:26:28.024Z,101137.00
2018-09-28T02:28:56.929Z,101143.00
2018-09-28T02:31:25.852Z,101138.00
2018-09-28T02:33:54.704Z,101143.00
2018-09-28T02:36:23.583Z,101140.00
2018-09-28T02:38:52.474Z,101132.00
2018-09-28T02:41:21.323Z,101139.00
2018-09-28T02:43:50.261Z,101137.00
2018-09-28T02:46:19.132Z,101129.00
2018-09-28T02:48:48.040Z,101118.00
2018-09-28T02:51:16.921Z,101123.00
2018-09-28T02:53:45.793Z,101125.00
2018-09-28T02:56:14.662Z,101131.00
2018-09-28T02:58:43.585Z,101132.00
2018-09-28T03:01:12.547Z,101135.00
2018-09-28T03:03:41.459Z,101132.00
2018-09-28T03:06:10.361Z,101130.00
2018-09-28T03:08:39.194Z,101132.00
2018-09-28T03:11:08.029Z,101132.00
2018-09-28T03:13:36.924Z,101136.00
2018-09-28T03:16:05.824Z,101131.00
2018-09-28T03:18:34.753Z,101130.00
2018-09-28T03:21:03.680Z,101124.00
2018-09-28T03:23:32.811Z,101131.00
2018-09-28T03:26:01.785Z,101127.00
2018-09-28T03:28:30.529Z,101137.00
2018-09-28T03:30:59.393Z,101136.00
2018-09-28T03:33:28.255Z,101139.00
2018-09-28T03:35:57.161Z,101138.00
2018-09-28T03:38:26.067Z,101147.00
2018-09-28T03:40:54.991Z,101137.00
2018-09-28T03:43:23.933Z,101136.00
2018-09-28T03:45:52.842Z,101129.00
2018-09-28T03:48:21.659Z,101136.00
2018-09-28T03:50:50.882Z,101139.00
2018-09-28T03:53:19.736Z,101143.00
2018-09-28T03:55:48.638Z,101135.00
2018-09-28T03:58:17.606Z,101138.00
2018-09-28T04:00:46.441Z,101132.00
2018-09-28T04:03:15.362Z,101141.00
2018-09-28T04:05:44.302Z,101136.00
2018-09-28T04:08:13.180Z,101137.00
2018-09-28T04:10:42.075Z,101138.00
2018-09-28T04:13:10.976Z,101143.00
2018-09-28T04:15:39.823Z,101129.00
2018-09-28T04:18:08.759Z,101134.00
2018-09-28T04:20:37.703Z,101147.00
2018-09-28T04:23:06.598Z,101145.00
2018-09-28T04:25:35.525Z,101137.00
2018-09-28T04:28:04.402Z,101138.00
2018-09-28T04:30:33.289Z,101140.00
2018-09-28T04:33:02.153Z,101140.00
2018-09-28T04:35:31.071Z,101146.00
2018-09-28T04:38:00.000Z,101148.00
2018-09-28T04:40:28.955Z,101149.00
2018-09-28T04:42:57.795Z,101152.00
2018-09-28T04:45:26.671Z,101151.00
2018-09-28T04:47:55.621Z,101164.00
2018-09-28T04:50:24.537Z,101158.00
2018-09-28T04:52:53.442Z,101164.00
2018-09-28T04:55:22.352Z,101169.00
2018-09-28T04:57:51.227Z,101166.00
2018-09-28T05:00:20.128Z,101172.00
2018-09-28T05:02:48.956Z,101181.00
2018-09-28T05:05:17.775Z,101185.00
2018-09-28T05:07:46.672Z,101179.00
2018-09-28T05:10:15.555Z,101184.00
2018-09-28T05:12:44.391Z,101198.00
2018-09-28T05:15:13.296Z,101192.00
2018-09-28T05:17:42.155Z,101202.00
2018-09-28T05:20:11.038Z,101195.00
2018-09-28T05:22:40.314Z,101200.00
2018-09-28T05:25:09.584Z,101204.00
2018-09-28T05:27:38.651Z,101209.00
2018-09-28T05:30:07.536Z,101206.00
2018-09-28T05:32:36.639Z,101212.00
2018-09-28T05:35:05.359Z,101225.00
2018-09-28T05:37:34.192Z,101227.00
2018-09-28T05:40:03.079Z,101223.00
2018-09-28T05:42:31.992Z,101229.00
2018-09-28T05:45:00.835Z,101238.00
2018-09-28T05:47:29.728Z,101236.00
2018-09-28T05:49:58.602Z,101241.00
2018-09-28T05:52:27.469Z,101242.00
2018-09-28T05:54:56.335Z,101247.00
2018-09-28T05:57:25.305Z,101252.00
2018-09-28T05:59:59.789Z,101243.00
2018-09-28T06:02:34.104Z,101254.00
2018-09-28T06:05:08.254Z,101253.00
2018-09-28T06:07:37.247Z,101264.00
2018-09-28T06:10:06.148Z,101269.00
2018-09-28T06:12:35.106Z,101277.00
2018-09-28T06:15:04.001Z,101269.00
2018-09-28T06:17:32.880Z,101289.00
2018-09-28T06:20:01.779Z,101286.00
2018-09-28T06:22:30.751Z,101296.00
2018-09-28T06:24:59.647Z,101297.00
2018-09-28T06:27:28.532Z,101309.00
2018-09-28T06:29:57.554Z,101310.00
2018-09-28T06:32:26.386Z,101310.00
2018-09-28T06:34:55.323Z,101321.00
2018-09-28T06:37:24.172Z,101311.00
2018-09-28T06:39:53.057Z,101331.00
2018-09-28T06:42:22.240Z,101333.00
2018-09-28T06:44:51.061Z,101329.00
2018-09-28T06:47:19.981Z,101332.00
2018-09-28T06:49:48.883Z,101332.00
2018-09-28T06:52:17.860Z,101341.00
2018-09-28T06:54:46.893Z,101343.00
2018-09-28T06:57:15.833Z,101342.00
2018-09-28T06:59:44.750Z,101339.00
2018-09-28T07:02:13.616Z,101357.00
2018-09-28T07:04:42.512Z,101345.00
2018-09-28T07:07:11.384Z,101359.00
2018-09-28T07:09:40.235Z,101360.00
2018-09-28T07:12:09.083Z,101368.00
2018-09-28T07:14:37.988Z,101374.00
2018-09-28T07:17:07.094Z,101374.00
2018-09-28T07:19:35.943Z,101383.00
2018-09-28T07:22:04.849Z,101387.00
2018-09-28T07:24:33.828Z,101403.00
2018-09-28T07:27:02.631Z,101397.00
2018-09-28T07:29:31.553Z,101397.00
2018-09-28T07:32:00.405Z,101404.00
2018-09-28T07:34:29.317Z,101403.00
2018-09-28T07:36:58.344Z,101409.00
2018-09-28T07:39:27.221Z,101416.00
2018-09-28T07:41:56.209Z,101408.00
2018-09-28T07:44:25.047Z,101414.00
2018-09-28T07:46:54.002Z,101423.00
2018-09-28T07:49:22.916Z,101427.00
2018-09-28T07:51:51.788Z,101426.00
2018-09-28T07:54:20.652Z,101436.00
2018-09-28T07:56:49.552Z,101442.00
2018-09-28T07:59:18.438Z,101454.00
2018-09-28T08:01:47.313Z,101456.00
2018-09-28T08:04:16.233Z,101447.00
2018-09-28T08:06:45.096Z,101460.00
2018-09-28T08:09:14.065Z,101464.00
2018-09-28T08:11:42.945Z,101468.00
2018-09-28T08:14:12.104Z,101472.00
2018-09-28T08:16:40.950Z,101466.00
2018-09-28T08:19:09.889Z,101471.00
2018-09-28T08:21:38.783Z,101475.00
2018-09-28T08:24:07.769Z,101485.00
2018-09-28T08:26:36.636Z,101473.00
2018-09-28T08:29:05.671Z,101480.00
2018-09-28T08:31:34.560Z,101500.00
2018-09-28T08:34:03.432Z,101499.00
2018-09-28T08:36:32.446Z,101508.00
2018-09-28T08:39:01.292Z,101511.00
2018-09-28T08:41:30.185Z,101504.00
2018-09-28T08:43:59.081Z,101496.00
2018-09-28T08:46:27.964Z,101494.00
2018-09-28T08:48:56.827Z,101499.00
2018-09-28T08:51:25.861Z,101503.00
2018-09-28T08:53:54.720Z,101513.00
2018-09-28T08:56:23.547Z,101520.00
2018-09-28T08:58:52.373Z,101510.00
2018-09-28T09:01:21.275Z,101509.00
2018-09-28T09:03:50.185Z,101514.00
2018-09-28T09:06:19.060Z,101526.00
2018-09-28T09:08:47.905Z,101519.00
2018-09-28T09:11:16.750Z,101524.00
2018-09-28T09:13:45.657Z,101523.00
2018-09-28T09:16:14.557Z,101534.00
2018-09-28T09:18:43.449Z,101541.00
2018-09-28T09:21:12.304Z,101533.00
2018-09-28T09:23:41.200Z,101536.00
2018-09-28T09:26:10.112Z,101535.00
2018-09-28T09:28:39.061Z,101531.00
2018-09-28T09:31:08.188Z,101520.00
2018-09-28T09:33:37.015Z,101537.00
2018-09-28T09:36:06.097Z,101540.00
2018-09-28T09:38:34.990Z,101547.00
2018-09-28T09:41:03.871Z,101540.00
2018-09-28T09:43:32.767Z,101547.00
2018-09-28T09:46:01.700Z,101542.00
2018-09-28T09:48:30.611Z,101551.00
2018-09-28T09:50:59.418Z,101548.00
2018-09-28T09:53:28.297Z,101548.00
2018-09-28T09:55:57.185Z,101554.00
2018-09-28T09:58:26.108Z,101549.00
2018-09-28T10:01:00.315Z,101556.00
2018-09-28T10:03:34.640Z,101559.00
2018-09-28T10:06:03.480Z,101558.00
2018-09-28T10:08:32.366Z,101551.00
2018-09-28T10:11:01.184Z,101557.00
2018-09-28T10:13:30.404Z,101560.00
2018-09-28T10:15:59.293Z,101558.00
2018-09-28T10:18:28.163Z,101563.00
2018-09-28T10:20:57.002Z,101546.00
2018-09-28T10:23:25.916Z,101544.00
2018-09-28T10:25:54.849Z,101559.00
2018-09-28T10:28:23.749Z,101561.00
2018-09-28T10:30:52.588Z,101564.00
2018-09-28T10:33:21.660Z,101561.00
2018-09-28T10:35:50.572Z,101578.00
2018-09-28T10:38:19.467Z,101574.00
2018-09-28T10:40:48.326Z,101570.00
2018-09-28T10:43:17.325Z,101564.00
2018-09-28T10:45:46.403Z,101568.00
2018-09-28T10:48:15.292Z,101575.00
2018-09-28T10:50:44.130Z,101571.00
2018-09-28T10:53:13.078Z,101574.00
2018-09-28T10:55:41.926Z,101577.00
2018-09-28T10:58:10.918Z,101573.00
2018-09-28T11:00:39.755Z,101580.00
2018-09-28T11:03:08.666Z,101571.00
2018-09-28T11:05:37.502Z,101575.00
2018-09-28T11:08:06.339Z,101573.00
2018-09-28T11:10:35.251Z,101573.00
2018-09-28T11:13:04.189Z,101563.00
2018-09-28T11:15:33.150Z,101567.00
2018-09-28T11:18:01.988Z,101567.00
2018-09-28T11:20:30.868Z,101567.00
2018-09-28T11:22:59.753Z,101587.00
2018-09-28T11:25:28.685Z,101579.00
2018-09-28T11:27:57.576Z,101572.00
2018-09-28T11:30:26.394Z,101568.00
2018-09-28T11:32:55.290Z,101573.00
2018-09-28T11:35:24.253Z,101576.00
2018-09-28T11:37:53.093Z,101569.00
2018-09-28T11:40:21.958Z,101564.00
2018-09-28T11:42:50.815Z,101575.00
2018-09-28T11:45:19.791Z,101580.00
2018-09-28T11:47:48.603Z,101585.00
2018-09-28T11:50:17.453Z,101579.00
2018-09-28T11:52:46.335Z,101582.00
2018-09-28T11:55:15.221Z,101583.00
2018-09-28T11:57:44.169Z,101580.00
2018-09-28T12:00:12.999Z,101585.00
2018-09-28T12:02:41.913Z,101573.00
2018-09-28T12:05:10.849Z,101582.00
2018-09-28T12:07:39.709Z,101586.00
2018-09-28T12:10:08.568Z,101577.00
2018-09-28T12:12:37.438Z,101582.00
2018-09-28T12:15:06.405Z,101586.00
2018-09-28T12:17:35.294Z,101587.00
2018-09-28T12:20:04.494Z,101586.00
2018-09-28T12:22:33.313Z,101580.00
2018-09-28T12:25:02.168Z,101596.00
2018-09-28T12:27:31.018Z,101583.00
2018-09-28T12:30:00.027Z,101589.00
2018-09-28T12:32:28.949Z,101590.00
2018-09-28T12:34:57.812Z,101590.00
2018-09-28T12:37:26.627Z,101581.00
2018-09-28T12:39:55.561Z,101584.00
2018-09-28T12:42:24.427Z,101596.00
2018-09-28T12:44:54.102Z,101595.00
2018-09-28T12:47:22.901Z,101594.00
2018-09-28T12:49:51.724Z,101605.00
2018-09-28T12:52:20.616Z,101605.00
2018-09-28T12:54:49.703Z,101603.00
2018-09-28T12:57:18.532Z,101603.00
2018-09-28T12:59:47.489Z,101602.00
2018-09-28T13:02:16.426Z,101599.00
2018-09-28T13:04:45.279Z,101604.00
2018-09-28T13:07:14.171Z,101600.00
2018-09-28T13:09:43.023Z,101606.00
2018-09-28T13:12:11.963Z,101604.00
2018-09-28T13:14:40.848Z,101606.00
2018-09-28T13:17:09.744Z,101600.00
2018-09-28T13:19:38.668Z,101599.00
2018-09-28T13:22:07.500Z,101600.00
2018-09-28T13:24:36.485Z,101602.00
2018-09-28T13:27:05.504Z,101599.00
2018-09-28T13:29:34.376Z,101589.00
2018-09-28T13:32:03.252Z,101599.00
2018-09-28T13:34:32.096Z,101600.00
2018-09-28T13:37:01.067Z,101617.00
2018-09-28T13:39:29.952Z,101607.00
2018-09-28T13:41:58.812Z,101621.00
2018-09-28T13:44:27.829Z,101622.00
2018-09-28T13:46:56.767Z,101618.00
2018-09-28T13:49:25.635Z,101626.00
2018-09-28T13:51:54.537Z,101617.00
2018-09-28T13:54:23.422Z,101622.00
2018-09-28T13:56:52.312Z,101624.00
2018-09-28T13:59:21.227Z,101643.00
2018-09-28T14:01:50.400Z,101641.00
2018-09-28T14:04:19.328Z,101654.00
2018-09-28T14:06:48.280Z,101651.00
2018-09-28T14:09:17.136Z,101656.00
2018-09-28T14:11:46.021Z,101665.00
2018-09-28T14:14:14.911Z,101670.00
2018-09-28T14:16:43.940Z,101665.00
2018-09-28T14:19:12.800Z,101666.00
2018-09-28T14:21:42.009Z,101663.00
2018-09-28T14:24:10.946Z,101670.00
2018-09-28T14:26:39.851Z,101672.00
2018-09-28T14:29:08.718Z,101671.00
2018-09-28T14:31:37.579Z,101678.00
2018-09-28T14:34:06.416Z,101681.00
2018-09-28T14:36:35.397Z,101676.00
2018-09-28T14:39:05.703Z,101679.00
2018-09-28T14:41:34.587Z,101681.00
2018-09-28T14:44:03.512Z,101682.00
2018-09-28T14:46:32.484Z,101693.00
2018-09-28T14:49:01.448Z,101684.00
2018-09-28T14:51:30.287Z,101685.00
2018-09-28T14:53:59.195Z,101687.00
2018-09-28T14:56:28.125Z,101690.00
2018-09-28T14:58:57.049Z,101691.00
2018-09-28T15:01:25.968Z,101699.00
2018-09-28T15:03:54.876Z,101701.00
2018-09-28T15:06:23.739Z,101693.00
2018-09-28T15:08:52.592Z,101693.00
2018-09-28T15:11:21.488Z,101702.00
2018-09-28T15:13:50.367Z,101693.00
2018-09-28T15:16:19.298Z,101695.00
2018-09-28T15:18:48.214Z,101704.00
2018-09-28T15:21:17.082Z,101704.00
2018-09-28T15:23:46.021Z,101706.00
2018-09-28T15:26:14.896Z,101710.00
2018-09-28T15:28:43.793Z,101710.00
2018-09-28T15:31:12.719Z,101708.00
2018-09-28T15:33:41.572Z,101719.00
2018-09-28T15:36:10.445Z,101720.00
2018-09-28T15:38:39.342Z,101714.00
2018-09-28T15:41:08.206Z,101702.00
2018-09-28T15:43:37.422Z,101704.00
2018-09-28T15:46:06.314Z,101711.00
2018-09-28T15:48:35.212Z,101712.00
2018-09-28T15:51:04.081Z,101714.00
2018-09-28T15:53:32.960Z,101720.00
2018-09-28T15:56:01.809Z,101728.00
2018-09-28T15:58:30.691Z,101724.00
2018-09-28T16:00:59.552Z,101711.00
2018-09-28T16:03:28.403Z,101723.00
2018-09-28T16:05:57.275Z,101708.00
2018-09-28T16:08:26.300Z,101729.00
2018-09-28T16:10:55.193Z,101723.00
2018-09-28T16:13:24.024Z,101730.00
2018-09-28T16:15:52.955Z,101726.00
2018-09-28T16:18:21.809Z,101724.00
2018-09-28T16:20:50.655Z,101737.00
2018-09-28T16:23:19.536Z,101743.00
2018-09-28T16:25:48.382Z,101741.00
2018-09-28T16:28:17.223Z,101734.00
2018-09-28T16:30:46.078Z,101745.00
2018-09-28T16:33:14.939Z,101749.00
2018-09-28T16:35:43.838Z,101746.00
2018-09-28T16:38:12.733Z,101751.00
2018-09-28T16:40:41.659Z,101762.00
2018-09-28T16:43:10.562Z,101762.00
2018-09-28T16:45:39.439Z,101771.00
2018-09-28T16:48:08.291Z,101782.00
2018-09-28T16:50:37.183Z,101780.00
2018-09-28T16:53:06.033Z,101790.00
2018-09-28T16:55:34.884Z,101795.00
2018-09-28T16:58:03.727Z,101799.00
2018-09-28T17:00:32.606Z,101802.00
2018-09-28T17:03:01.481Z,101806.00
2018-09-28T17:05:30.332Z,101807.00
2018-09-28T17:07:59.200Z,101796.00
2018-09-28T17:10:28.047Z,101811.00
2018-09-28T17:12:56.915Z,101819.00
2018-09-28T17:15:25.811Z,101821.00
2018-09-28T17:17:54.692Z,101823.00
2018-09-28T17:20:23.544Z,101821.00
2018-09-28T17:22:52.540Z,101832.00
2018-09-28T17:25:21.411Z,101838.00
2018-09-28T17:27:50.240Z,101844.00
2018-09-28T17:30:19.062Z,101842.00
2018-09-28T17:32:47.916Z,101848.00
2018-09-28T17:35:16.759Z,101849.00
2018-09-28T17:37:45.654Z,101842.00
2018-09-28T17:40:14.447Z,101848.00
2018-09-28T17:42:43.360Z,101851.00
2018-09-28T17:45:12.292Z,101850.00
2018-09-28T17:47:41.205Z,101858.00
2018-09-28T17:50:10.076Z,101858.00
2018-09-28T17:52:38.982Z,101858.00
2018-09-28T17:55:07.834Z,101870.00
2018-09-28T17:57:36.684Z,101869.00
2018-09-28T18:00:05.700Z,101864.00
2018-09-28T18:02:34.620Z,101872.00
2018-09-28T18:05:03.432Z,101874.00
2018-09-28T18:07:32.343Z,101877.00
2018-09-28T18:10:01.220Z,101872.00
2018-09-28T18:12:30.275Z,101881.00
2018-09-28T18:14:59.140Z,101885.00
2018-09-28T18:17:28.014Z,101879.00
2018-09-28T18:19:56.867Z,101890.00
2018-09-28T18:22:25.780Z,101881.00
2018-09-28T18:24:54.770Z,101892.00
2018-09-28T18:27:23.727Z,101888.00
2018-09-28T18:29:52.569Z,101893.00
2018-09-28T18:32:21.476Z,101901.00
2018-09-28T18:34:50.346Z,101894.00
2018-09-28T18:37:19.223Z,101890.00
2018-09-28T18:39:48.045Z,101893.00
2018-09-28T18:42:16.947Z,101888.00
2018-09-28T18:44:45.791Z,101889.00
2018-09-28T18:47:14.651Z,101894.00
2018-09-28T18:49:43.543Z,101897.00
2018-09-28T18:52:12.448Z,101896.00
2018-09-28T18:54:41.394Z,101900.00
2018-09-28T18:57:10.312Z,101898.00
2018-09-28T18:59:39.147Z,101902.00
2018-09-28T19:02:08.009Z,101899.00
2018-09-28T19:04:36.859Z,101904.00
2018-09-28T19:07:05.756Z,101908.00
2018-09-28T19:09:35.845Z,101915.00
2018-09-28T19:12:04.688Z,101908.00
2018-09-28T19:14:33.555Z,101917.00
2018-09-28T19:17:02.416Z,101927.00
2018-09-28T19:19:31.336Z,101931.00
2018-09-28T19:22:00.195Z,101929.00
2018-09-28T19:24:29.057Z,101933.00
2018-09-28T19:26:57.907Z,101931.00
2018-09-28T19:29:26.808Z,101940.00
2018-09-28T19:31:55.627Z,101933.00
2018-09-28T19:34:24.468Z,101940.00
2018-09-28T19:36:53.460Z,101939.00
2018-09-28T19:39:22.251Z,101934.00
2018-09-28T19:41:51.109Z,101945.00
2018-09-28T19:44:19.952Z,101952.00
2018-09-28T19:46:48.835Z,101947.00
2018-09-28T19:49:17.785Z,101959.00
2018-09-28T19:51:46.607Z,101955.00
2018-09-28T19:54:15.483Z,101959.00
2018-09-28T19:56:44.349Z,101957.00
2018-09-28T19:59:13.239Z,101962.00
2018-09-28T20:01:42.172Z,101966.00
2018-09-28T20:04:11.055Z,101961.00
2018-09-28T20:06:39.961Z,101968.00
2018-09-28T20:09:10.416Z,101971.00
2018-09-28T20:11:39.306Z,101972.00
2018-09-28T20:14:08.429Z,101964.00
2018-09-28T20:16:37.279Z,101954.00
2018-09-28T20:19:06.364Z,101971.00
2018-09-28T20:21:35.187Z,101978.00
2018-09-28T20:24:04.081Z,101978.00
2018-09-28T20:26:32.932Z,101976.00
2018-09-28T20:29:01.804Z,101986.00
2018-09-28T20:31:30.699Z,101981.00
2018-09-28T20:33:59.643Z,101974.00
2018-09-28T20:36:28.512Z,101992.00
2018-09-28T20:38:57.358Z,101994.00
2018-09-28T20:41:26.219Z,101986.00
2018-09-28T20:43:55.554Z,102003.00
2018-09-28T20:46:24.439Z,102003.00
2018-09-28T20:48:53.305Z,102000.00
2018-09-28T20:51:22.169Z,102002.00
2018-09-28T20:53:51.080Z,102000.00
2018-09-28T20:56:19.971Z,102012.00
2018-09-28T20:58:48.817Z,102012.00
2018-09-28T21:01:17.710Z,102015.00
2018-09-28T21:03:46.628Z,102017.00
2018-09-28T21:06:15.483Z,102021.00
2018-09-28T21:08:44.723Z,102026.00
2018-09-28T21:11:13.616Z,102015.00
2018-09-28T21:13:42.450Z,102025.00
2018-09-28T21:16:11.330Z,102039.00
2018-09-28T21:18:40.161Z,102037.00
2018-09-28T21:21:09.022Z,102033.00
2018-09-28T21:23:37.894Z,102039.00
2018-09-28T21:26:06.728Z,102037.00
2018-09-28T21:28:35.608Z,102045.00
2018-09-28T21:31:04.485Z,102044.00
2018-09-28T21:33:33.317Z,102043.00
2018-09-28T21:36:02.199Z,102042.00
2018-09-28T21:38:31.038Z,102045.00
2018-09-28T21:40:59.914Z,102054.00
2018-09-28T21:43:28.771Z,102050.00
2018-09-28T21:45:57.606Z,102056.00
2018-09-28T21:48:26.472Z,102061.00
2018-09-28T21:50:55.347Z,102054.00
2018-09-28T21:53:24.238Z,102059.00
2018-09-28T21:55:53.103Z,102060.00
2018-09-28T21:58:21.955Z,102062.00
2018-09-28T22:00:57.164Z,102069.00
2018-09-28T22:03:26.440Z,102059.00
2018-09-28T22:05:55.256Z,102060.00
2018-09-28T22:08:24.136Z,102063.00
2018-09-28T22:10:53.004Z,102059.00
2018-09-28T22:13:21.861Z,102064.00
2018-09-28T22:15:50.710Z,102065.00
2018-09-28T22:18:19.627Z,102067.00
2018-09-28T22:20:48.518Z,102054.00
2018-09-28T22:23:17.375Z,102058.00
2018-09-28T22:25:46.235Z,102065.00
2018-09-28T22:28:15.064Z,102075.00
2018-09-28T22:30:43.924Z,102068.00
2018-09-28T22:33:12.809Z,102068.00
2018-09-28T22:35:41.670Z,102070.00
2018-09-28T22:38:10.556Z,102067.00
2018-09-28T22:40:39.448Z,102058.00
2018-09-28T22:43:08.286Z,102067.00
2018-09-28T22:45:37.107Z,102065.00
2018-09-28T22:48:05.983Z,102059.00
2018-09-28T22:50:34.840Z,102054.00
2018-09-28T22:53:03.708Z,102066.00
2018-09-28T22:55:32.542Z,102067.00
2018-09-28T22:58:01.412Z,102073.00
2018-09-28T23:00:30.322Z,102064.00
2018-09-28T23:02:59.192Z,102072.00
2018-09-28T23:05:28.087Z,102081.00
2018-09-28T23:07:56.942Z,102074.00
2018-09-28T23:10:25.852Z,102067.00
2018-09-28T23:12:54.835Z,102079.00
2018-09-28T23:15:23.719Z,102080.00
2018-09-28T23:17:52.539Z,102069.00
2018-09-28T23:20:21.429Z,102074.00
2018-09-28T23:22:50.329Z,102075.00
2018-09-28T23:25:19.248Z,102069.00
2018-09-28T23:27:48.110Z,102079.00
2018-09-28T23:30:16.980Z,102085.00
2018-09-28T23:32:45.848Z,102089.00
2018-09-28T23:35:14.702Z,102072.00
2018-09-28T23:37:43.598Z,102078.00
2018-09-28T23:40:12.453Z,102083.00
2018-09-28T23:42:41.319Z,102094.00
2018-09-28T23:45:10.171Z,102087.00
2018-09-28T23:47:39.103Z,102092.00
2018-09-28T23:50:08.280Z,102086.00
2018-09-28T23:52:37.138Z,102097.00
2018-09-28T23:55:05.987Z,102091.00
2018-09-28T23:57:34.846Z,102089.00
